sensor_id;sensor_type;location;lat;lon;timestamp;P1;durP1;ratioP1;P2;durP2;ratioP2
2724;SDS011;1370;52.596;13.112;2023-11-21T00:01:34;10.50;;;7.80;;
2724;SDS011;1370;52.596;13.112;2023-11-21T00:03:59;10.33;;;8.63;;
2724;SDS011;1370;52.596;13.112;2023-11-21T00:06:26;9.10;;;8.00;;
2724;SDS011;1370;52.596;13.112;2023-11-21T00:08:51;14.73;;;8.50;;
2724;SDS011;1370;52.596;13.112;2023-11-21T00:11:17;8.30;;;7.50;;
2724;SDS011;1370;52.596;13.112;2023-11-21T00:13:42;9.70;;;7.70;;
2724;SDS011;1370;52.596;13.112;2023-11-21T00:16:07;14.27;;;9.20;;
2724;SDS011;1370;52.596;13.112;2023-11-21T00:18:33;10.57;;;8.20;;
2724;SDS011;1370;52.596;13.112;2023-11-21T00:20:58;8.87;;;7.90;;
2724;SDS011;1370;52.596;13.112;2023-11-21T00:23:24;8.93;;;8.03;;
2724;SDS011;1370;52.596;13.112;2023-11-21T00:25:49;12.97;;;8.33;;
2724;SDS011;1370;52.596;13.112;2023-11-21T00:28:14;9.53;;;7.97;;
2724;SDS011;1370;52.596;13.112;2023-11-21T00:30:40;9.30;;;7.93;;
2724;SDS011;1370;52.596;13.112;2023-11-21T00:33:05;9.63;;;7.43;;
2724;SDS011;1370;52.596;13.112;2023-11-21T00:35:30;9.10;;;8.07;;
2724;SDS011;1370;52.596;13.112;2023-11-21T00:37:56;7.80;;;7.20;;
2724;SDS011;1370;52.596;13.112;2023-11-21T00:40:22;10.70;;;8.03;;
2724;SDS011;1370;52.596;13.112;2023-11-21T00:42:48;8.97;;;8.03;;
2724;SDS011;1370;52.596;13.112;2023-11-21T00:45:13;8.67;;;7.87;;
2724;SDS011;1370;52.596;13.112;2023-11-21T00:47:38;10.97;;;8.37;;
2724;SDS011;1370;52.596;13.112;2023-11-21T00:50:04;11.33;;;8.47;;
2724;SDS011;1370;52.596;13.112;2023-11-21T00:52:31;8.30;;;7.50;;
2724;SDS011;1370;52.596;13.112;2023-11-21T00:54:56;13.30;;;8.20;;
2724;SDS011;1370;52.596;13.112;2023-11-21T00:57:24;10.73;;;7.57;;
2724;SDS011;1370;52.596;13.112;2023-11-21T00:59:49;8.33;;;7.43;;
2724;SDS011;1370;52.596;13.112;2023-11-21T01:02:14;8.67;;;7.50;;
2724;SDS011;1370;52.596;13.112;2023-11-21T01:04:40;8.10;;;7.30;;
2724;SDS011;1370;52.596;13.112;2023-11-21T01:07:05;8.60;;;7.90;;
2724;SDS011;1370;52.596;13.112;2023-11-21T01:09:31;10.67;;;9.57;;
2724;SDS011;1370;52.596;13.112;2023-11-21T01:11:56;11.40;;;9.10;;
2724;SDS011;1370;52.596;13.112;2023-11-21T01:14:22;12.37;;;9.00;;
2724;SDS011;1370;52.596;13.112;2023-11-21T01:16:47;12.90;;;10.70;;
2724;SDS011;1370;52.596;13.112;2023-11-21T01:19:13;13.37;;;11.00;;
2724;SDS011;1370;52.596;13.112;2023-11-21T01:21:39;10.70;;;9.70;;
2724;SDS011;1370;52.596;13.112;2023-11-21T01:24:04;13.07;;;10.23;;
2724;SDS011;1370;52.596;13.112;2023-11-21T01:26:32;11.30;;;10.27;;
2724;SDS011;1370;52.596;13.112;2023-11-21T01:28:58;12.43;;;9.73;;
2724;SDS011;1370;52.596;13.112;2023-11-21T01:31:23;12.67;;;9.50;;
2724;SDS011;1370;52.596;13.112;2023-11-21T01:33:48;14.73;;;10.30;;
2724;SDS011;1370;52.596;13.112;2023-11-21T01:36:13;11.40;;;9.77;;
2724;SDS011;1370;52.596;13.112;2023-11-21T01:38:39;16.23;;;10.80;;
2724;SDS011;1370;52.596;13.112;2023-11-21T01:41:04;13.43;;;9.87;;
2724;SDS011;1370;52.596;13.112;2023-11-21T01:43:31;10.70;;;9.20;;
2724;SDS011;1370;52.596;13.112;2023-11-21T01:45:57;9.50;;;8.47;;
2724;SDS011;1370;52.596;13.112;2023-11-21T01:48:23;10.63;;;8.23;;
2724;SDS011;1370;52.596;13.112;2023-11-21T01:50:49;11.30;;;8.40;;
2724;SDS011;1370;52.596;13.112;2023-11-21T01:53:14;10.23;;;8.40;;
2724;SDS011;1370;52.596;13.112;2023-11-21T01:55:40;10.27;;;9.27;;
2724;SDS011;1370;52.596;13.112;2023-11-21T01:58:06;13.63;;;9.70;;
2724;SDS011;1370;52.596;13.112;2023-11-21T02:00:32;15.60;;;9.57;;
2724;SDS011;1370;52.596;13.112;2023-11-21T02:02:58;9.37;;;8.47;;
2724;SDS011;1370;52.596;13.112;2023-11-21T02:05:24;12.40;;;10.30;;
2724;SDS011;1370;52.596;13.112;2023-11-21T02:07:50;12.80;;;9.87;;
2724;SDS011;1370;52.596;13.112;2023-11-21T02:10:17;9.00;;;8.20;;
2724;SDS011;1370;52.596;13.112;2023-11-21T02:12:47;13.10;;;10.07;;
2724;SDS011;1370;52.596;13.112;2023-11-21T02:15:16;11.73;;;8.40;;
2724;SDS011;1370;52.596;13.112;2023-11-21T02:17:48;13.27;;;9.43;;
2724;SDS011;1370;52.596;13.112;2023-11-21T02:20:16;11.10;;;9.73;;
2724;SDS011;1370;52.596;13.112;2023-11-21T02:22:43;9.00;;;8.10;;
2724;SDS011;1370;52.596;13.112;2023-11-21T02:25:15;8.83;;;7.90;;
2724;SDS011;1370;52.596;13.112;2023-11-21T02:27:40;9.70;;;8.73;;
2724;SDS011;1370;52.596;13.112;2023-11-21T02:30:06;9.70;;;8.77;;
2724;SDS011;1370;52.596;13.112;2023-11-21T02:32:33;10.03;;;8.90;;
2724;SDS011;1370;52.596;13.112;2023-11-21T02:34:59;10.13;;;9.03;;
2724;SDS011;1370;52.596;13.112;2023-11-21T02:37:27;12.70;;;9.73;;
2724;SDS011;1370;52.596;13.112;2023-11-21T02:39:53;9.13;;;8.20;;
2724;SDS011;1370;52.596;13.112;2023-11-21T02:42:18;10.30;;;8.60;;
2724;SDS011;1370;52.596;13.112;2023-11-21T02:44:43;10.90;;;9.03;;
2724;SDS011;1370;52.596;13.112;2023-11-21T02:47:09;13.60;;;10.00;;
2724;SDS011;1370;52.596;13.112;2023-11-21T02:52:28;11.77;;;9.03;;
2724;SDS011;1370;52.596;13.112;2023-11-21T02:54:53;9.57;;;8.00;;
2724;SDS011;1370;52.596;13.112;2023-11-21T02:57:19;15.90;;;10.00;;
2724;SDS011;1370;52.596;13.112;2023-11-21T02:59:44;13.97;;;9.43;;
2724;SDS011;1370;52.596;13.112;2023-11-21T03:02:09;13.07;;;9.23;;
2724;SDS011;1370;52.596;13.112;2023-11-21T03:04:35;9.97;;;8.93;;
2724;SDS011;1370;52.596;13.112;2023-11-21T03:07:00;12.10;;;9.30;;
2724;SDS011;1370;52.596;13.112;2023-11-21T03:09:26;10.73;;;8.83;;
2724;SDS011;1370;52.596;13.112;2023-11-21T03:11:51;10.10;;;9.10;;
2724;SDS011;1370;52.596;13.112;2023-11-21T03:14:17;11.80;;;9.40;;
2724;SDS011;1370;52.596;13.112;2023-11-21T03:16:42;12.47;;;10.40;;
2724;SDS011;1370;52.596;13.112;2023-11-21T03:19:10;13.30;;;9.07;;
2724;SDS011;1370;52.596;13.112;2023-11-21T03:21:35;10.80;;;9.50;;
2724;SDS011;1370;52.596;13.112;2023-11-21T03:24:00;14.73;;;9.27;;
2724;SDS011;1370;52.596;13.112;2023-11-21T03:26:26;12.27;;;10.30;;
2724;SDS011;1370;52.596;13.112;2023-11-21T03:28:51;11.13;;;9.87;;
2724;SDS011;1370;52.596;13.112;2023-11-21T03:31:18;9.83;;;8.50;;
2724;SDS011;1370;52.596;13.112;2023-11-21T03:33:44;12.50;;;9.77;;
2724;SDS011;1370;52.596;13.112;2023-11-21T03:36:10;9.93;;;9.00;;
2724;SDS011;1370;52.596;13.112;2023-11-21T03:38:36;12.60;;;10.97;;
2724;SDS011;1370;52.596;13.112;2023-11-21T03:41:01;12.93;;;9.53;;
2724;SDS011;1370;52.596;13.112;2023-11-21T03:43:27;12.27;;;9.83;;
2724;SDS011;1370;52.596;13.112;2023-11-21T03:45:52;10.13;;;8.80;;
2724;SDS011;1370;52.596;13.112;2023-11-21T03:48:17;11.77;;;9.70;;
2724;SDS011;1370;52.596;13.112;2023-11-21T03:50:43;14.27;;;10.37;;
2724;SDS011;1370;52.596;13.112;2023-11-21T03:53:08;18.83;;;11.70;;
2724;SDS011;1370;52.596;13.112;2023-11-21T03:55:33;17.50;;;11.77;;
2724;SDS011;1370;52.596;13.112;2023-11-21T03:57:59;14.60;;;11.27;;
2724;SDS011;1370;52.596;13.112;2023-11-21T04:00:24;19.17;;;12.20;;
2724;SDS011;1370;52.596;13.112;2023-11-21T04:02:51;17.80;;;11.83;;
2724;SDS011;1370;52.596;13.112;2023-11-21T04:05:17;19.93;;;11.03;;
2724;SDS011;1370;52.596;13.112;2023-11-21T04:07:42;15.50;;;11.33;;
2724;SDS011;1370;52.596;13.112;2023-11-21T04:10:08;13.77;;;11.07;;
2724;SDS011;1370;52.596;13.112;2023-11-21T04:12:34;11.83;;;10.60;;
2724;SDS011;1370;52.596;13.112;2023-11-21T04:15:00;15.73;;;12.60;;
2724;SDS011;1370;52.596;13.112;2023-11-21T04:17:25;16.83;;;11.87;;
2724;SDS011;1370;52.596;13.112;2023-11-21T04:19:50;13.83;;;10.47;;
2724;SDS011;1370;52.596;13.112;2023-11-21T04:22:16;14.03;;;10.60;;
2724;SDS011;1370;52.596;13.112;2023-11-21T04:24:41;15.33;;;13.73;;
2724;SDS011;1370;52.596;13.112;2023-11-21T04:27:06;15.33;;;11.80;;
2724;SDS011;1370;52.596;13.112;2023-11-21T04:29:32;14.57;;;11.70;;
2724;SDS011;1370;52.596;13.112;2023-11-21T04:31:57;15.37;;;11.23;;
2724;SDS011;1370;52.596;13.112;2023-11-21T04:34:22;16.27;;;11.70;;
2724;SDS011;1370;52.596;13.112;2023-11-21T04:36:47;15.10;;;10.53;;
2724;SDS011;1370;52.596;13.112;2023-11-21T04:39:13;14.53;;;12.33;;
2724;SDS011;1370;52.596;13.112;2023-11-21T04:41:38;16.13;;;11.97;;
2724;SDS011;1370;52.596;13.112;2023-11-21T04:44:04;15.90;;;12.50;;
2724;SDS011;1370;52.596;13.112;2023-11-21T04:46:30;15.27;;;11.03;;
2724;SDS011;1370;52.596;13.112;2023-11-21T04:48:56;14.90;;;11.10;;
2724;SDS011;1370;52.596;13.112;2023-11-21T04:51:22;16.93;;;12.00;;
2724;SDS011;1370;52.596;13.112;2023-11-21T04:53:47;12.73;;;11.23;;
2724;SDS011;1370;52.596;13.112;2023-11-21T04:56:12;14.93;;;11.37;;
2724;SDS011;1370;52.596;13.112;2023-11-21T04:58:38;16.50;;;12.30;;
2724;SDS011;1370;52.596;13.112;2023-11-21T05:01:04;20.63;;;12.37;;
2724;SDS011;1370;52.596;13.112;2023-11-21T05:03:30;14.33;;;10.70;;
2724;SDS011;1370;52.596;13.112;2023-11-21T05:05:56;16.30;;;13.67;;
2724;SDS011;1370;52.596;13.112;2023-11-21T05:08:21;17.77;;;12.80;;
2724;SDS011;1370;52.596;13.112;2023-11-21T05:10:47;16.10;;;11.67;;
2724;SDS011;1370;52.596;13.112;2023-11-21T05:13:13;16.97;;;13.13;;
2724;SDS011;1370;52.596;13.112;2023-11-21T05:15:40;19.63;;;13.83;;
2724;SDS011;1370;52.596;13.112;2023-11-21T05:18:06;15.93;;;11.77;;
2724;SDS011;1370;52.596;13.112;2023-11-21T05:20:31;20.73;;;13.63;;
2724;SDS011;1370;52.596;13.112;2023-11-21T05:22:58;16.70;;;13.23;;
2724;SDS011;1370;52.596;13.112;2023-11-21T05:25:23;14.10;;;12.67;;
2724;SDS011;1370;52.596;13.112;2023-11-21T05:27:49;18.00;;;14.00;;
2724;SDS011;1370;52.596;13.112;2023-11-21T05:30:14;19.93;;;13.83;;
2724;SDS011;1370;52.596;13.112;2023-11-21T05:32:40;17.73;;;12.30;;
2724;SDS011;1370;52.596;13.112;2023-11-21T05:35:08;16.60;;;10.87;;
2724;SDS011;1370;52.596;13.112;2023-11-21T05:37:37;16.93;;;11.67;;
2724;SDS011;1370;52.596;13.112;2023-11-21T05:40:04;17.50;;;13.07;;
2724;SDS011;1370;52.596;13.112;2023-11-21T05:42:31;15.27;;;12.33;;
2724;SDS011;1370;52.596;13.112;2023-11-21T05:44:57;13.67;;;11.97;;
2724;SDS011;1370;52.596;13.112;2023-11-21T05:47:24;13.80;;;11.60;;
2724;SDS011;1370;52.596;13.112;2023-11-21T05:49:51;17.20;;;12.40;;
2724;SDS011;1370;52.596;13.112;2023-11-21T05:52:17;14.63;;;10.13;;
2724;SDS011;1370;52.596;13.112;2023-11-21T05:54:42;19.30;;;12.03;;
2724;SDS011;1370;52.596;13.112;2023-11-21T05:57:07;11.97;;;10.80;;
2724;SDS011;1370;52.596;13.112;2023-11-21T05:59:33;18.50;;;12.00;;
2724;SDS011;1370;52.596;13.112;2023-11-21T06:02:01;19.10;;;11.23;;
2724;SDS011;1370;52.596;13.112;2023-11-21T06:04:27;13.50;;;10.57;;
2724;SDS011;1370;52.596;13.112;2023-11-21T06:06:52;13.43;;;10.67;;
2724;SDS011;1370;52.596;13.112;2023-11-21T06:09:18;15.50;;;12.03;;
2724;SDS011;1370;52.596;13.112;2023-11-21T06:11:44;15.37;;;11.30;;
2724;SDS011;1370;52.596;13.112;2023-11-21T06:14:09;17.53;;;11.50;;
2724;SDS011;1370;52.596;13.112;2023-11-21T06:16:36;13.67;;;11.70;;
2724;SDS011;1370;52.596;13.112;2023-11-21T06:19:01;16.30;;;11.70;;
2724;SDS011;1370;52.596;13.112;2023-11-21T06:21:26;18.63;;;10.60;;
2724;SDS011;1370;52.596;13.112;2023-11-21T06:23:51;18.13;;;11.70;;
2724;SDS011;1370;52.596;13.112;2023-11-21T06:26:18;17.13;;;11.47;;
2724;SDS011;1370;52.596;13.112;2023-11-21T06:28:43;11.87;;;10.33;;
2724;SDS011;1370;52.596;13.112;2023-11-21T06:31:09;14.37;;;10.77;;
2724;SDS011;1370;52.596;13.112;2023-11-21T06:33:35;15.07;;;11.33;;
2724;SDS011;1370;52.596;13.112;2023-11-21T06:36:01;14.77;;;10.10;;
2724;SDS011;1370;52.596;13.112;2023-11-21T06:38:29;12.30;;;10.23;;
2724;SDS011;1370;52.596;13.112;2023-11-21T06:40:57;14.03;;;12.03;;
2724;SDS011;1370;52.596;13.112;2023-11-21T06:43:23;11.20;;;9.53;;
2724;SDS011;1370;52.596;13.112;2023-11-21T06:45:48;12.67;;;9.30;;
2724;SDS011;1370;52.596;13.112;2023-11-21T06:48:14;13.40;;;9.37;;
2724;SDS011;1370;52.596;13.112;2023-11-21T06:50:39;12.60;;;10.43;;
2724;SDS011;1370;52.596;13.112;2023-11-21T06:53:05;13.80;;;8.90;;
2724;SDS011;1370;52.596;13.112;2023-11-21T06:55:32;13.20;;;9.30;;
2724;SDS011;1370;52.596;13.112;2023-11-21T06:57:57;10.53;;;9.33;;
2724;SDS011;1370;52.596;13.112;2023-11-21T07:00:23;15.80;;;9.93;;
2724;SDS011;1370;52.596;13.112;2023-11-21T07:02:48;15.73;;;9.60;;
2724;SDS011;1370;52.596;13.112;2023-11-21T07:05:14;11.30;;;8.83;;
2724;SDS011;1370;52.596;13.112;2023-11-21T07:07:40;11.50;;;8.77;;
2724;SDS011;1370;52.596;13.112;2023-11-21T07:10:05;12.90;;;8.67;;
2724;SDS011;1370;52.596;13.112;2023-11-21T07:12:31;13.30;;;8.93;;
2724;SDS011;1370;52.596;13.112;2023-11-21T07:14:57;12.20;;;8.70;;
2724;SDS011;1370;52.596;13.112;2023-11-21T07:17:22;11.33;;;8.90;;
2724;SDS011;1370;52.596;13.112;2023-11-21T07:19:48;10.37;;;9.33;;
2724;SDS011;1370;52.596;13.112;2023-11-21T07:22:13;9.80;;;8.90;;
2724;SDS011;1370;52.596;13.112;2023-11-21T07:24:39;13.13;;;8.27;;
2724;SDS011;1370;52.596;13.112;2023-11-21T07:27:04;11.10;;;8.43;;
2724;SDS011;1370;52.596;13.112;2023-11-21T07:29:30;14.63;;;8.80;;
2724;SDS011;1370;52.596;13.112;2023-11-21T07:31:55;10.60;;;8.53;;
2724;SDS011;1370;52.596;13.112;2023-11-21T07:34:20;11.77;;;8.90;;
2724;SDS011;1370;52.596;13.112;2023-11-21T07:36:46;9.00;;;8.07;;
2724;SDS011;1370;52.596;13.112;2023-11-21T07:39:11;11.47;;;9.60;;
2724;SDS011;1370;52.596;13.112;2023-11-21T07:41:37;15.77;;;10.80;;
2724;SDS011;1370;52.596;13.112;2023-11-21T07:44:04;9.77;;;8.73;;
2724;SDS011;1370;52.596;13.112;2023-11-21T07:46:29;11.93;;;9.70;;
2724;SDS011;1370;52.596;13.112;2023-11-21T07:48:55;10.47;;;8.93;;
2724;SDS011;1370;52.596;13.112;2023-11-21T07:51:20;10.47;;;9.43;;
2724;SDS011;1370;52.596;13.112;2023-11-21T07:53:45;9.50;;;8.03;;
2724;SDS011;1370;52.596;13.112;2023-11-21T07:56:11;10.20;;;8.33;;
2724;SDS011;1370;52.596;13.112;2023-11-21T07:58:37;10.80;;;8.63;;
2724;SDS011;1370;52.596;13.112;2023-11-21T08:01:03;9.30;;;8.30;;
2724;SDS011;1370;52.596;13.112;2023-11-21T08:03:28;11.20;;;7.67;;
2724;SDS011;1370;52.596;13.112;2023-11-21T08:05:58;11.60;;;7.20;;
2724;SDS011;1370;52.596;13.112;2023-11-21T08:08:23;8.50;;;7.37;;
2724;SDS011;1370;52.596;13.112;2023-11-21T08:10:49;8.87;;;8.07;;
2724;SDS011;1370;52.596;13.112;2023-11-21T08:13:21;7.30;;;6.60;;
2724;SDS011;1370;52.596;13.112;2023-11-21T08:15:56;8.13;;;6.73;;
2724;SDS011;1370;52.596;13.112;2023-11-21T08:18:26;9.10;;;6.10;;
2724;SDS011;1370;52.596;13.112;2023-11-21T08:20:51;6.50;;;5.90;;
2724;SDS011;1370;52.596;13.112;2023-11-21T08:23:17;5.93;;;5.43;;
2724;SDS011;1370;52.596;13.112;2023-11-21T08:25:45;7.63;;;6.40;;
2724;SDS011;1370;52.596;13.112;2023-11-21T08:28:11;7.47;;;5.27;;
2724;SDS011;1370;52.596;13.112;2023-11-21T08:30:39;6.00;;;5.60;;
2724;SDS011;1370;52.596;13.112;2023-11-21T08:33:06;5.70;;;5.17;;
2724;SDS011;1370;52.596;13.112;2023-11-21T08:35:31;6.47;;;5.90;;
2724;SDS011;1370;52.596;13.112;2023-11-21T08:37:57;7.37;;;5.50;;
2724;SDS011;1370;52.596;13.112;2023-11-21T08:40:22;6.60;;;5.83;;
2724;SDS011;1370;52.596;13.112;2023-11-21T08:42:48;6.10;;;5.50;;
2724;SDS011;1370;52.596;13.112;2023-11-21T08:45:14;5.17;;;4.63;;
2724;SDS011;1370;52.596;13.112;2023-11-21T08:47:40;5.60;;;5.20;;
2724;SDS011;1370;52.596;13.112;2023-11-21T08:50:06;6.00;;;5.43;;
2724;SDS011;1370;52.596;13.112;2023-11-21T08:52:32;5.60;;;5.10;;
2724;SDS011;1370;52.596;13.112;2023-11-21T08:54:58;6.87;;;5.87;;
2724;SDS011;1370;52.596;13.112;2023-11-21T08:57:27;5.90;;;5.33;;
2724;SDS011;1370;52.596;13.112;2023-11-21T08:59:52;6.00;;;5.50;;
2724;SDS011;1370;52.596;13.112;2023-11-21T09:02:20;8.13;;;6.57;;
2724;SDS011;1370;52.596;13.112;2023-11-21T09:04:48;8.13;;;6.00;;
2724;SDS011;1370;52.596;13.112;2023-11-21T09:07:13;6.67;;;5.53;;
2724;SDS011;1370;52.596;13.112;2023-11-21T09:09:38;6.73;;;6.13;;
2724;SDS011;1370;52.596;13.112;2023-11-21T09:12:04;6.30;;;5.80;;
2724;SDS011;1370;52.596;13.112;2023-11-21T09:14:29;6.13;;;5.63;;
2724;SDS011;1370;52.596;13.112;2023-11-21T09:16:54;7.13;;;5.57;;
2724;SDS011;1370;52.596;13.112;2023-11-21T09:19:21;6.57;;;5.90;;
2724;SDS011;1370;52.596;13.112;2023-11-21T09:21:46;9.27;;;6.37;;
2724;SDS011;1370;52.596;13.112;2023-11-21T09:24:12;6.40;;;5.80;;
2724;SDS011;1370;52.596;13.112;2023-11-21T09:26:37;5.67;;;5.23;;
2724;SDS011;1370;52.596;13.112;2023-11-21T09:29:02;6.30;;;5.80;;
2724;SDS011;1370;52.596;13.112;2023-11-21T09:31:28;6.47;;;5.87;;
2724;SDS011;1370;52.596;13.112;2023-11-21T09:33:53;6.13;;;5.50;;
2724;SDS011;1370;52.596;13.112;2023-11-21T09:36:21;7.17;;;5.33;;
2724;SDS011;1370;52.596;13.112;2023-11-21T09:38:48;5.73;;;5.07;;
2724;SDS011;1370;52.596;13.112;2023-11-21T09:41:21;6.80;;;5.30;;
2724;SDS011;1370;52.596;13.112;2023-11-21T09:43:50;5.60;;;4.93;;
2724;SDS011;1370;52.596;13.112;2023-11-21T09:46:20;5.90;;;5.30;;
2724;SDS011;1370;52.596;13.112;2023-11-21T09:48:50;5.83;;;5.23;;
2724;SDS011;1370;52.596;13.112;2023-11-21T09:51:17;7.07;;;6.43;;
2724;SDS011;1370;52.596;13.112;2023-11-21T09:53:45;7.63;;;6.40;;
2724;SDS011;1370;52.596;13.112;2023-11-21T09:56:12;6.17;;;5.67;;
2724;SDS011;1370;52.596;13.112;2023-11-21T09:58:38;9.67;;;6.47;;
2724;SDS011;1370;52.596;13.112;2023-11-21T10:01:04;7.73;;;7.07;;
2724;SDS011;1370;52.596;13.112;2023-11-21T10:03:33;7.40;;;6.10;;
2724;SDS011;1370;52.596;13.112;2023-11-21T10:06:01;8.27;;;7.47;;
2724;SDS011;1370;52.596;13.112;2023-11-21T10:08:27;7.10;;;6.60;;
2724;SDS011;1370;52.596;13.112;2023-11-21T10:10:53;9.70;;;8.70;;
2724;SDS011;1370;52.596;13.112;2023-11-21T10:13:19;7.23;;;6.60;;
2724;SDS011;1370;52.596;13.112;2023-11-21T10:15:49;7.30;;;6.60;;
2724;SDS011;1370;52.596;13.112;2023-11-21T10:18:15;8.70;;;8.00;;
2724;SDS011;1370;52.596;13.112;2023-11-21T10:20:41;7.73;;;7.13;;
2724;SDS011;1370;52.596;13.112;2023-11-21T10:23:07;11.13;;;7.80;;
2724;SDS011;1370;52.596;13.112;2023-11-21T10:25:36;8.73;;;6.90;;
2724;SDS011;1370;52.596;13.112;2023-11-21T10:28:02;9.30;;;7.73;;
2724;SDS011;1370;52.596;13.112;2023-11-21T10:30:34;9.57;;;8.60;;
2724;SDS011;1370;52.596;13.112;2023-11-21T10:33:06;8.83;;;8.03;;
2724;SDS011;1370;52.596;13.112;2023-11-21T10:35:39;8.57;;;7.87;;
2724;SDS011;1370;52.596;13.112;2023-11-21T10:38:07;8.43;;;7.63;;
2724;SDS011;1370;52.596;13.112;2023-11-21T10:40:38;9.90;;;9.03;;
2724;SDS011;1370;52.596;13.112;2023-11-21T10:43:06;10.23;;;9.30;;
2724;SDS011;1370;52.596;13.112;2023-11-21T10:45:33;8.90;;;8.10;;
2724;SDS011;1370;52.596;13.112;2023-11-21T10:47:59;10.80;;;9.00;;
2724;SDS011;1370;52.596;13.112;2023-11-21T10:50:25;9.37;;;8.50;;
2724;SDS011;1370;52.596;13.112;2023-11-21T10:52:51;8.93;;;8.13;;
2724;SDS011;1370;52.596;13.112;2023-11-21T10:55:19;10.00;;;9.10;;
2724;SDS011;1370;52.596;13.112;2023-11-21T10:57:48;10.27;;;9.17;;
2724;SDS011;1370;52.596;13.112;2023-11-21T11:00:14;8.53;;;7.77;;
2724;SDS011;1370;52.596;13.112;2023-11-21T11:02:41;9.30;;;8.43;;
2724;SDS011;1370;52.596;13.112;2023-11-21T11:05:06;13.37;;;9.17;;
2724;SDS011;1370;52.596;13.112;2023-11-21T11:07:36;11.57;;;10.43;;
2724;SDS011;1370;52.596;13.112;2023-11-21T11:10:02;9.50;;;8.37;;
2724;SDS011;1370;52.596;13.112;2023-11-21T11:12:29;10.83;;;9.70;;
2724;SDS011;1370;52.596;13.112;2023-11-21T11:14:56;17.80;;;11.80;;
2724;SDS011;1370;52.596;13.112;2023-11-21T11:17:22;10.43;;;9.40;;
2724;SDS011;1370;52.596;13.112;2023-11-21T11:19:48;13.63;;;9.43;;
2724;SDS011;1370;52.596;13.112;2023-11-21T11:28:14;12.37;;;9.37;;
2724;SDS011;1370;52.596;13.112;2023-11-21T11:30:50;9.33;;;8.53;;
2724;SDS011;1370;52.596;13.112;2023-11-21T11:36:15;8.97;;;8.07;;
2724;SDS011;1370;52.596;13.112;2023-11-21T11:38:47;10.07;;;8.50;;
2724;SDS011;1370;52.596;13.112;2023-11-21T11:41:19;14.60;;;8.60;;
2724;SDS011;1370;52.596;13.112;2023-11-21T11:43:49;12.07;;;9.33;;
2724;SDS011;1370;52.596;13.112;2023-11-21T11:46:14;9.13;;;8.07;;
2724;SDS011;1370;52.596;13.112;2023-11-21T11:48:40;11.20;;;9.47;;
2724;SDS011;1370;52.596;13.112;2023-11-21T11:51:12;9.60;;;8.60;;
2724;SDS011;1370;52.596;13.112;2023-11-21T11:53:47;12.97;;;9.87;;
2724;SDS011;1370;52.596;13.112;2023-11-21T11:58:48;9.80;;;8.27;;
2724;SDS011;1370;52.596;13.112;2023-11-21T12:01:15;9.97;;;9.00;;
2724;SDS011;1370;52.596;13.112;2023-11-21T12:03:41;9.73;;;8.37;;
2724;SDS011;1370;52.596;13.112;2023-11-21T12:06:07;9.37;;;7.77;;
2724;SDS011;1370;52.596;13.112;2023-11-21T12:08:34;8.60;;;7.77;;
2724;SDS011;1370;52.596;13.112;2023-11-21T12:11:00;9.13;;;7.40;;
2724;SDS011;1370;52.596;13.112;2023-11-21T12:13:26;9.13;;;8.00;;
2724;SDS011;1370;52.596;13.112;2023-11-21T12:15:53;8.60;;;7.70;;
2724;SDS011;1370;52.596;13.112;2023-11-21T12:18:19;10.43;;;8.20;;
2724;SDS011;1370;52.596;13.112;2023-11-21T12:20:46;8.67;;;7.97;;
2724;SDS011;1370;52.596;13.112;2023-11-21T12:23:13;10.33;;;8.63;;
2724;SDS011;1370;52.596;13.112;2023-11-21T12:25:41;8.30;;;7.67;;
2724;SDS011;1370;52.596;13.112;2023-11-21T12:28:07;8.90;;;7.60;;
2724;SDS011;1370;52.596;13.112;2023-11-21T12:30:33;10.17;;;7.57;;
2724;SDS011;1370;52.596;13.112;2023-11-21T12:33:03;8.10;;;7.30;;
2724;SDS011;1370;52.596;13.112;2023-11-21T12:35:29;12.53;;;8.40;;
2724;SDS011;1370;52.596;13.112;2023-11-21T12:37:59;10.30;;;9.30;;
2724;SDS011;1370;52.596;13.112;2023-11-21T12:40:25;11.70;;;9.13;;
2724;SDS011;1370;52.596;13.112;2023-11-21T12:42:54;17.90;;;10.33;;
2724;SDS011;1370;52.596;13.112;2023-11-21T12:45:21;13.83;;;9.30;;
2724;SDS011;1370;52.596;13.112;2023-11-21T12:47:50;15.70;;;10.97;;
2724;SDS011;1370;52.596;13.112;2023-11-21T12:50:20;12.87;;;10.50;;
2724;SDS011;1370;52.596;13.112;2023-11-21T12:52:51;10.60;;;9.50;;
2724;SDS011;1370;52.596;13.112;2023-11-21T12:55:18;11.33;;;9.00;;
2724;SDS011;1370;52.596;13.112;2023-11-21T12:57:48;10.17;;;9.17;;
2724;SDS011;1370;52.596;13.112;2023-11-21T13:00:16;11.30;;;8.90;;
2724;SDS011;1370;52.596;13.112;2023-11-21T13:02:55;10.27;;;8.80;;
2724;SDS011;1370;52.596;13.112;2023-11-21T13:05:30;10.80;;;9.40;;
2724;SDS011;1370;52.596;13.112;2023-11-21T13:07:59;11.67;;;9.00;;
2724;SDS011;1370;52.596;13.112;2023-11-21T13:10:28;11.40;;;8.53;;
2724;SDS011;1370;52.596;13.112;2023-11-21T13:12:55;8.80;;;7.93;;
2724;SDS011;1370;52.596;13.112;2023-11-21T13:15:24;11.80;;;8.87;;
2724;SDS011;1370;52.596;13.112;2023-11-21T13:17:50;11.50;;;8.93;;
2724;SDS011;1370;52.596;13.112;2023-11-21T13:20:16;15.70;;;10.80;;
2724;SDS011;1370;52.596;13.112;2023-11-21T13:22:57;13.00;;;9.97;;
2724;SDS011;1370;52.596;13.112;2023-11-21T13:25:24;15.00;;;11.10;;
2724;SDS011;1370;52.596;13.112;2023-11-21T13:27:59;11.00;;;9.40;;
2724;SDS011;1370;52.596;13.112;2023-11-21T13:30:25;12.67;;;10.50;;
2724;SDS011;1370;52.596;13.112;2023-11-21T13:33:03;12.93;;;10.37;;
2724;SDS011;1370;52.596;13.112;2023-11-21T13:35:33;14.87;;;11.40;;
2724;SDS011;1370;52.596;13.112;2023-11-21T13:38:13;17.40;;;10.80;;
2724;SDS011;1370;52.596;13.112;2023-11-21T13:40:42;12.60;;;11.30;;
2724;SDS011;1370;52.596;13.112;2023-11-21T13:43:13;15.23;;;10.97;;
2724;SDS011;1370;52.596;13.112;2023-11-21T13:45:40;15.00;;;11.83;;
2724;SDS011;1370;52.596;13.112;2023-11-21T13:48:07;14.87;;;11.43;;
2724;SDS011;1370;52.596;13.112;2023-11-21T13:50:39;19.63;;;12.73;;
2724;SDS011;1370;52.596;13.112;2023-11-21T13:53:09;14.77;;;11.40;;
2724;SDS011;1370;52.596;13.112;2023-11-21T13:55:47;14.63;;;12.43;;
2724;SDS011;1370;52.596;13.112;2023-11-21T13:58:14;14.37;;;12.23;;
2724;SDS011;1370;52.596;13.112;2023-11-21T14:00:44;16.47;;;12.30;;
2724;SDS011;1370;52.596;13.112;2023-11-21T14:03:14;14.87;;;11.30;;
2724;SDS011;1370;52.596;13.112;2023-11-21T14:05:45;16.80;;;11.03;;
2724;SDS011;1370;52.596;13.112;2023-11-21T14:08:13;16.10;;;12.00;;
2724;SDS011;1370;52.596;13.112;2023-11-21T14:10:41;14.97;;;12.40;;
2724;SDS011;1370;52.596;13.112;2023-11-21T14:13:14;17.33;;;13.00;;
2724;SDS011;1370;52.596;13.112;2023-11-21T14:15:41;18.83;;;12.57;;
2724;SDS011;1370;52.596;13.112;2023-11-21T14:18:10;22.07;;;14.77;;
2724;SDS011;1370;52.596;13.112;2023-11-21T14:20:39;24.90;;;15.17;;
2724;SDS011;1370;52.596;13.112;2023-11-21T14:23:07;23.73;;;16.33;;
2724;SDS011;1370;52.596;13.112;2023-11-21T14:25:33;27.43;;;17.00;;
2724;SDS011;1370;52.596;13.112;2023-11-21T14:27:59;28.90;;;17.10;;
2724;SDS011;1370;52.596;13.112;2023-11-21T14:30:25;27.23;;;17.43;;
2724;SDS011;1370;52.596;13.112;2023-11-21T14:32:52;30.00;;;15.67;;
2724;SDS011;1370;52.596;13.112;2023-11-21T14:35:17;33.63;;;18.50;;
2724;SDS011;1370;52.596;13.112;2023-11-21T14:37:43;32.20;;;18.97;;
2724;SDS011;1370;52.596;13.112;2023-11-21T14:40:08;26.77;;;17.63;;
2724;SDS011;1370;52.596;13.112;2023-11-21T14:42:34;31.97;;;20.77;;
2724;SDS011;1370;52.596;13.112;2023-11-21T14:45:02;26.83;;;17.37;;
2724;SDS011;1370;52.596;13.112;2023-11-21T14:47:31;47.00;;;26.07;;
2724;SDS011;1370;52.596;13.112;2023-11-21T14:49:57;45.73;;;28.40;;
2724;SDS011;1370;52.596;13.112;2023-11-21T14:52:24;40.17;;;23.17;;
2724;SDS011;1370;52.596;13.112;2023-11-21T14:55:03;44.53;;;26.90;;
2724;SDS011;1370;52.596;13.112;2023-11-21T14:57:48;32.73;;;21.03;;
2724;SDS011;1370;52.596;13.112;2023-11-21T15:00:20;37.83;;;20.93;;